sensor_id;sensor_type;location;lat;lon;timestamp;temperature;humidity
3198;DHT22;1611;49.394;11.136;2023-08-30T00:01:22;13.80;73.50
3198;DHT22;1611;49.394;11.136;2023-08-30T00:03:49;13.80;74.30
3198;DHT22;1611;49.394;11.136;2023-08-30T00:06:15;13.90;74.20
3198;DHT22;1611;49.394;11.136;2023-08-30T00:08:42;13.80;74.10
3198;DHT22;1611;49.394;11.136;2023-08-30T00:11:10;13.80;74.50
3198;DHT22;1611;49.394;11.136;2023-08-30T00:13:37;13.80;74.70
3198;DHT22;1611;49.394;11.136;2023-08-30T00:16:04;13.80;74.80
3198;DHT22;1611;49.394;11.136;2023-08-30T00:18:30;13.80;74.80
3198;DHT22;1611;49.394;11.136;2023-08-30T00:20:57;13.90;74.70
3198;DHT22;1611;49.394;11.136;2023-08-30T00:23:24;13.90;74.20
3198;DHT22;1611;49.394;11.136;2023-08-30T00:25:51;13.90;73.60
3198;DHT22;1611;49.394;11.136;2023-08-30T00:28:19;13.90;73.50
3198;DHT22;1611;49.394;11.136;2023-08-30T00:30:46;13.90;73.30
3198;DHT22;1611;49.394;11.136;2023-08-30T00:33:12;13.90;73.20
3198;DHT22;1611;49.394;11.136;2023-08-30T00:35:39;13.90;73.20
3198;DHT22;1611;49.394;11.136;2023-08-30T00:38:06;13.90;73.50
3198;DHT22;1611;49.394;11.136;2023-08-30T00:40:38;13.90;73.20
3198;DHT22;1611;49.394;11.136;2023-08-30T00:43:06;13.90;73.70
3198;DHT22;1611;49.394;11.136;2023-08-30T00:45:34;13.90;73.60
3198;DHT22;1611;49.394;11.136;2023-08-30T00:48:05;13.80;73.10
3198;DHT22;1611;49.394;11.136;2023-08-30T00:50:33;13.70;73.50
3198;DHT22;1611;49.394;11.136;2023-08-30T00:53:00;13.70;73.60
3198;DHT22;1611;49.394;11.136;2023-08-30T00:55:31;13.70;73.50
3198;DHT22;1611;49.394;11.136;2023-08-30T00:57:58;13.60;73.90
3198;DHT22;1611;49.394;11.136;2023-08-30T01:00:25;13.60;73.40
3198;DHT22;1611;49.394;11.136;2023-08-30T01:02:54;13.50;73.40
3198;DHT22;1611;49.394;11.136;2023-08-30T01:05:21;13.50;74.00
3198;DHT22;1611;49.394;11.136;2023-08-30T01:07:49;13.40;74.20
3198;DHT22;1611;49.394;11.136;2023-08-30T01:10:16;13.40;74.60
3198;DHT22;1611;49.394;11.136;2023-08-30T01:12:45;13.40;74.30
3198;DHT22;1611;49.394;11.136;2023-08-30T01:15:18;13.40;74.20
3198;DHT22;1611;49.394;11.136;2023-08-30T01:17:48;13.50;74.00
3198;DHT22;1611;49.394;11.136;2023-08-30T01:20:17;13.50;73.90
3198;DHT22;1611;49.394;11.136;2023-08-30T01:22:55;13.50;74.10
3198;DHT22;1611;49.394;11.136;2023-08-30T01:25:37;13.50;74.20
3198;DHT22;1611;49.394;11.136;2023-08-30T01:28:12;13.50;74.10
3198;DHT22;1611;49.394;11.136;2023-08-30T01:30:42;13.40;73.90
3198;DHT22;1611;49.394;11.136;2023-08-30T01:33:10;13.50;73.80
3198;DHT22;1611;49.394;11.136;2023-08-30T01:35:38;13.50;73.40
3198;DHT22;1611;49.394;11.136;2023-08-30T01:38:07;13.50;73.20
3198;DHT22;1611;49.394;11.136;2023-08-30T01:40:36;13.50;73.20
3198;DHT22;1611;49.394;11.136;2023-08-30T01:43:04;13.50;73.10
3198;DHT22;1611;49.394;11.136;2023-08-30T01:45:35;13.60;73.20
3198;DHT22;1611;49.394;11.136;2023-08-30T01:48:04;13.60;73.10
3198;DHT22;1611;49.394;11.136;2023-08-30T01:50:32;13.60;73.20
3198;DHT22;1611;49.394;11.136;2023-08-30T01:53:00;13.60;73.40
3198;DHT22;1611;49.394;11.136;2023-08-30T01:55:28;13.60;73.10
3198;DHT22;1611;49.394;11.136;2023-08-30T01:57:56;13.70;73.40
3198;DHT22;1611;49.394;11.136;2023-08-30T02:00:22;13.70;73.30
3198;DHT22;1611;49.394;11.136;2023-08-30T02:02:51;13.70;73.30
3198;DHT22;1611;49.394;11.136;2023-08-30T02:05:17;13.70;73.50
3198;DHT22;1611;49.394;11.136;2023-08-30T02:07:51;13.70;73.00
3198;DHT22;1611;49.394;11.136;2023-08-30T02:10:23;13.70;72.50
3198;DHT22;1611;49.394;11.136;2023-08-30T02:12:53;13.70;72.40
3198;DHT22;1611;49.394;11.136;2023-08-30T02:15:21;13.60;72.30
3198;DHT22;1611;49.394;11.136;2023-08-30T02:17:52;13.60;72.60
3198;DHT22;1611;49.394;11.136;2023-08-30T02:20:19;13.50;73.00
3198;DHT22;1611;49.394;11.136;2023-08-30T02:22:46;13.60;73.80
3198;DHT22;1611;49.394;11.136;2023-08-30T02:25:13;13.60;74.10
3198;DHT22;1611;49.394;11.136;2023-08-30T02:27:40;13.60;74.20
3198;DHT22;1611;49.394;11.136;2023-08-30T02:30:07;13.60;74.50
3198;DHT22;1611;49.394;11.136;2023-08-30T02:32:34;13.70;74.50
3198;DHT22;1611;49.394;11.136;2023-08-30T02:35:03;13.60;74.40
3198;DHT22;1611;49.394;11.136;2023-08-30T02:37:30;13.70;74.40
3198;DHT22;1611;49.394;11.136;2023-08-30T02:39:56;13.80;74.30
3198;DHT22;1611;49.394;11.136;2023-08-30T02:42:23;13.80;73.50
3198;DHT22;1611;49.394;11.136;2023-08-30T02:44:51;13.80;73.00
3198;DHT22;1611;49.394;11.136;2023-08-30T02:47:18;13.70;73.30
3198;DHT22;1611;49.394;11.136;2023-08-30T02:49:44;13.70;73.40
3198;DHT22;1611;49.394;11.136;2023-08-30T02:52:13;13.70;73.50
3198;DHT22;1611;49.394;11.136;2023-08-30T02:54:39;13.70;73.40
3198;DHT22;1611;49.394;11.136;2023-08-30T02:57:06;13.60;74.10
3198;DHT22;1611;49.394;11.136;2023-08-30T02:59:33;13.60;74.70
3198;DHT22;1611;49.394;11.136;2023-08-30T03:02:00;13.60;74.80
3198;DHT22;1611;49.394;11.136;2023-08-30T03:04:27;13.50;74.90
3198;DHT22;1611;49.394;11.136;2023-08-30T03:06:54;13.70;75.00
3198;DHT22;1611;49.394;11.136;2023-08-30T03:09:22;13.60;75.30
3198;DHT22;1611;49.394;11.136;2023-08-30T03:11:49;13.60;74.20
3198;DHT22;1611;49.394;11.136;2023-08-30T03:14:15;13.60;74.10
3198;DHT22;1611;49.394;11.136;2023-08-30T03:16:42;13.60;73.80
3198;DHT22;1611;49.394;11.136;2023-08-30T03:19:10;13.60;74.20
3198;DHT22;1611;49.394;11.136;2023-08-30T03:21:37;13.60;74.20
3198;DHT22;1611;49.394;11.136;2023-08-30T03:24:04;13.60;74.30
3198;DHT22;1611;49.394;11.136;2023-08-30T03:26:32;13.50;74.30
3198;DHT22;1611;49.394;11.136;2023-08-30T03:28:59;13.60;74.60
3198;DHT22;1611;49.394;11.136;2023-08-30T03:31:26;13.60;74.40
3198;DHT22;1611;49.394;11.136;2023-08-30T03:33:53;13.60;74.60
3198;DHT22;1611;49.394;11.136;2023-08-30T03:36:19;13.60;74.30
3198;DHT22;1611;49.394;11.136;2023-08-30T03:38:46;13.70;74.30
3198;DHT22;1611;49.394;11.136;2023-08-30T03:41:14;13.60;73.90
3198;DHT22;1611;49.394;11.136;2023-08-30T03:43:42;13.70;74.60
3198;DHT22;1611;49.394;11.136;2023-08-30T03:46:09;13.60;73.70
3198;DHT22;1611;49.394;11.136;2023-08-30T03:48:37;13.60;73.80
3198;DHT22;1611;49.394;11.136;2023-08-30T03:51:04;13.60;74.00
3198;DHT22;1611;49.394;11.136;2023-08-30T03:53:31;13.50;74.10
3198;DHT22;1611;49.394;11.136;2023-08-30T03:55:57;13.50;74.10
3198;DHT22;1611;49.394;11.136;2023-08-30T03:58:25;13.40;74.50
3198;DHT22;1611;49.394;11.136;2023-08-30T04:00:53;13.30;75.20
3198;DHT22;1611;49.394;11.136;2023-08-30T04:03:20;13.30;75.10
3198;DHT22;1611;49.394;11.136;2023-08-30T04:05:46;13.30;75.10
3198;DHT22;1611;49.394;11.136;2023-08-30T04:08:13;13.40;75.20
3198;DHT22;1611;49.394;11.136;2023-08-30T04:10:41;13.30;74.60
3198;DHT22;1611;49.394;11.136;2023-08-30T04:13:09;13.30;74.50
3198;DHT22;1611;49.394;11.136;2023-08-30T04:15:37;13.30;74.00
3198;DHT22;1611;49.394;11.136;2023-08-30T04:18:06;13.20;74.20
3198;DHT22;1611;49.394;11.136;2023-08-30T04:20:33;13.20;74.60
3198;DHT22;1611;49.394;11.136;2023-08-30T04:23:01;13.20;74.70
3198;DHT22;1611;49.394;11.136;2023-08-30T04:25:28;13.20;74.60
3198;DHT22;1611;49.394;11.136;2023-08-30T04:27:55;13.20;75.20
3198;DHT22;1611;49.394;11.136;2023-08-30T04:30:22;13.20;75.30
3198;DHT22;1611;49.394;11.136;2023-08-30T04:32:48;13.30;75.40
3198;DHT22;1611;49.394;11.136;2023-08-30T04:35:17;13.40;75.30
3198;DHT22;1611;49.394;11.136;2023-08-30T04:37:43;13.40;74.20
3198;DHT22;1611;49.394;11.136;2023-08-30T04:40:10;13.40;74.20
3198;DHT22;1611;49.394;11.136;2023-08-30T04:42:38;13.30;74.50
3198;DHT22;1611;49.394;11.136;2023-08-30T04:45:06;13.30;75.00
3198;DHT22;1611;49.394;11.136;2023-08-30T04:47:33;13.40;74.80
3198;DHT22;1611;49.394;11.136;2023-08-30T04:50:00;13.40;74.30
3198;DHT22;1611;49.394;11.136;2023-08-30T04:52:28;13.50;74.30
3198;DHT22;1611;49.394;11.136;2023-08-30T04:54:55;13.50;74.60
3198;DHT22;1611;49.394;11.136;2023-08-30T04:57:22;13.50;74.40
3198;DHT22;1611;49.394;11.136;2023-08-30T04:59:49;13.50;74.40
3198;DHT22;1611;49.394;11.136;2023-08-30T05:02:15;13.50;74.20
3198;DHT22;1611;49.394;11.136;2023-08-30T05:04:42;13.50;74.00
3198;DHT22;1611;49.394;11.136;2023-08-30T05:07:09;13.50;74.20
3198;DHT22;1611;49.394;11.136;2023-08-30T05:09:37;13.50;73.90
3198;DHT22;1611;49.394;11.136;2023-08-30T05:12:06;13.50;73.70
3198;DHT22;1611;49.394;11.136;2023-08-30T05:14:33;13.60;73.00
3198;DHT22;1611;49.394;11.136;2023-08-30T05:17:00;13.60;72.60
3198;DHT22;1611;49.394;11.136;2023-08-30T05:19:26;13.60;73.00
3198;DHT22;1611;49.394;11.136;2023-08-30T05:21:53;13.60;72.70
3198;DHT22;1611;49.394;11.136;2023-08-30T05:24:20;13.60;72.60
3198;DHT22;1611;49.394;11.136;2023-08-30T05:26:48;13.70;72.40
3198;DHT22;1611;49.394;11.136;2023-08-30T05:29:15;13.80;71.90
3198;DHT22;1611;49.394;11.136;2023-08-30T05:31:42;13.80;71.70
3198;DHT22;1611;49.394;11.136;2023-08-30T05:34:09;13.80;71.20
3198;DHT22;1611;49.394;11.136;2023-08-30T05:36:36;13.90;71.40
3198;DHT22;1611;49.394;11.136;2023-08-30T05:39:03;13.90;71.50
3198;DHT22;1611;49.394;11.136;2023-08-30T05:41:30;14.00;71.50
3198;DHT22;1611;49.394;11.136;2023-08-30T05:43:58;14.00;71.60
3198;DHT22;1611;49.394;11.136;2023-08-30T05:46:25;14.10;71.60
3198;DHT22;1611;49.394;11.136;2023-08-30T05:48:51;14.10;71.40
3198;DHT22;1611;49.394;11.136;2023-08-30T05:51:20;14.20;70.80
3198;DHT22;1611;49.394;11.136;2023-08-30T05:53:46;14.20;71.00
3198;DHT22;1611;49.394;11.136;2023-08-30T05:56:13;14.20;71.00
3198;DHT22;1611;49.394;11.136;2023-08-30T05:58:40;14.30;71.20
3198;DHT22;1611;49.394;11.136;2023-08-30T06:01:08;14.30;71.20
3198;DHT22;1611;49.394;11.136;2023-08-30T06:03:35;14.30;71.50
3198;DHT22;1611;49.394;11.136;2023-08-30T06:06:01;14.40;71.30
3198;DHT22;1611;49.394;11.136;2023-08-30T06:08:28;14.50;71.40
3198;DHT22;1611;49.394;11.136;2023-08-30T06:10:55;14.50;71.20
3198;DHT22;1611;49.394;11.136;2023-08-30T06:13:22;14.60;71.00
3198;DHT22;1611;49.394;11.136;2023-08-30T06:15:50;14.70;71.10
3198;DHT22;1611;49.394;11.136;2023-08-30T06:18:19;14.80;71.20
3198;DHT22;1611;49.394;11.136;2023-08-30T06:20:45;14.80;70.70
3198;DHT22;1611;49.394;11.136;2023-08-30T06:23:14;14.90;70.60
3198;DHT22;1611;49.394;11.136;2023-08-30T06:25:41;15.10;70.50
3198;DHT22;1611;49.394;11.136;2023-08-30T06:28:08;15.20;70.20
3198;DHT22;1611;49.394;11.136;2023-08-30T06:30:34;15.30;70.20
3198;DHT22;1611;49.394;11.136;2023-08-30T06:33:01;15.30;69.20
3198;DHT22;1611;49.394;11.136;2023-08-30T06:35:29;15.40;68.80
3198;DHT22;1611;49.394;11.136;2023-08-30T06:37:56;15.40;68.50
3198;DHT22;1611;49.394;11.136;2023-08-30T06:40:23;15.60;68.50
3198;DHT22;1611;49.394;11.136;2023-08-30T06:42:50;15.60;68.70
3198;DHT22;1611;49.394;11.136;2023-08-30T06:45:17;15.70;67.60
3198;DHT22;1611;49.394;11.136;2023-08-30T06:47:43;15.70;67.60
3198;DHT22;1611;49.394;11.136;2023-08-30T06:50:10;15.90;67.30
3198;DHT22;1611;49.394;11.136;2023-08-30T06:52:38;16.00;67.10
3198;DHT22;1611;49.394;11.136;2023-08-30T06:55:05;16.10;66.40
3198;DHT22;1611;49.394;11.136;2023-08-30T06:57:32;16.20;65.60
3198;DHT22;1611;49.394;11.136;2023-08-30T06:59:59;16.20;65.20
3198;DHT22;1611;49.394;11.136;2023-08-30T07:02:33;16.30;64.30
3198;DHT22;1611;49.394;11.136;2023-08-30T07:05:00;16.30;64.80
3198;DHT22;1611;49.394;11.136;2023-08-30T07:07:27;16.40;65.20
3198;DHT22;1611;49.394;11.136;2023-08-30T07:09:55;16.40;64.60
3198;DHT22;1611;49.394;11.136;2023-08-30T07:12:22;16.50;64.80
3198;DHT22;1611;49.394;11.136;2023-08-30T07:14:48;16.40;64.40
3198;DHT22;1611;49.394;11.136;2023-08-30T07:17:15;16.50;64.70
3198;DHT22;1611;49.394;11.136;2023-08-30T07:19:42;16.60;63.60
3198;DHT22;1611;49.394;11.136;2023-08-30T07:22:08;16.70;63.00
3198;DHT22;1611;49.394;11.136;2023-08-30T07:24:35;16.70;63.30
3198;DHT22;1611;49.394;11.136;2023-08-30T07:27:04;16.80;63.10
3198;DHT22;1611;49.394;11.136;2023-08-30T07:29:31;16.90;63.20
3198;DHT22;1611;49.394;11.136;2023-08-30T07:31:58;16.90;62.70
3198;DHT22;1611;49.394;11.136;2023-08-30T07:34:24;17.00;61.70
3198;DHT22;1611;49.394;11.136;2023-08-30T07:36:54;16.90;61.20
3198;DHT22;1611;49.394;11.136;2023-08-30T07:39:20;16.90;61.10
3198;DHT22;1611;49.394;11.136;2023-08-30T07:41:47;16.90;60.90
3198;DHT22;1611;49.394;11.136;2023-08-30T07:44:15;17.00;61.20
3198;DHT22;1611;49.394;11.136;2023-08-30T07:46:42;17.10;61.50
3198;DHT22;1611;49.394;11.136;2023-08-30T07:49:09;17.20;61.10
3198;DHT22;1611;49.394;11.136;2023-08-30T07:51:36;17.20;60.30
3198;DHT22;1611;49.394;11.136;2023-08-30T07:54:03;17.20;59.50
3198;DHT22;1611;49.394;11.136;2023-08-30T07:56:30;17.20;58.70
3198;DHT22;1611;49.394;11.136;2023-08-30T07:58:57;17.10;58.50
3198;DHT22;1611;49.394;11.136;2023-08-30T08:01:25;17.20;58.90
3198;DHT22;1611;49.394;11.136;2023-08-30T08:03:52;17.10;59.50
3198;DHT22;1611;49.394;11.136;2023-08-30T08:06:18;17.30;60.20
3198;DHT22;1611;49.394;11.136;2023-08-30T08:08:45;17.50;59.80
3198;DHT22;1611;49.394;11.136;2023-08-30T08:11:12;17.70;58.20
3198;DHT22;1611;49.394;11.136;2023-08-30T08:13:39;17.90;57.70
3198;DHT22;1611;49.394;11.136;2023-08-30T08:16:05;18.10;55.10
3198;DHT22;1611;49.394;11.136;2023-08-30T08:18:33;18.10;54.50
3198;DHT22;1611;49.394;11.136;2023-08-30T08:21:00;18.40;53.50
3198;DHT22;1611;49.394;11.136;2023-08-30T08:23:28;18.50;53.50
3198;DHT22;1611;49.394;11.136;2023-08-30T08:25:57;18.40;51.70
3198;DHT22;1611;49.394;11.136;2023-08-30T08:28:25;18.50;53.40
3198;DHT22;1611;49.394;11.136;2023-08-30T08:30:52;18.40;52.10
3198;DHT22;1611;49.394;11.136;2023-08-30T08:33:18;18.50;53.90
3198;DHT22;1611;49.394;11.136;2023-08-30T08:35:49;18.60;52.50
3198;DHT22;1611;49.394;11.136;2023-08-30T08:38:16;18.60;51.80
3198;DHT22;1611;49.394;11.136;2023-08-30T08:40:42;18.60;51.70
3198;DHT22;1611;49.394;11.136;2023-08-30T08:43:10;18.70;51.70
3198;DHT22;1611;49.394;11.136;2023-08-30T08:45:37;19.00;52.40
3198;DHT22;1611;49.394;11.136;2023-08-30T08:48:04;19.00;50.70
3198;DHT22;1611;49.394;11.136;2023-08-30T08:50:32;19.20;49.40
3198;DHT22;1611;49.394;11.136;2023-08-30T08:53:01;19.40;48.10
3198;DHT22;1611;49.394;11.136;2023-08-30T08:55:29;19.40;47.20
3198;DHT22;1611;49.394;11.136;2023-08-30T08:57:57;19.50;48.00
3198;DHT22;1611;49.394;11.136;2023-08-30T09:00:25;19.60;46.40
3198;DHT22;1611;49.394;11.136;2023-08-30T09:02:53;19.60;47.10
3198;DHT22;1611;49.394;11.136;2023-08-30T09:05:20;19.70;46.80
3198;DHT22;1611;49.394;11.136;2023-08-30T09:07:47;19.70;47.60
3198;DHT22;1611;49.394;11.136;2023-08-30T09:10:18;19.70;46.50
3198;DHT22;1611;49.394;11.136;2023-08-30T09:12:44;19.70;45.40
3198;DHT22;1611;49.394;11.136;2023-08-30T09:15:11;19.90;45.20
3198;DHT22;1611;49.394;11.136;2023-08-30T09:17:39;20.10;45.30
3198;DHT22;1611;49.394;11.136;2023-08-30T09:20:09;20.30;44.00
3198;DHT22;1611;49.394;11.136;2023-08-30T09:22:37;20.50;45.60
3198;DHT22;1611;49.394;11.136;2023-08-30T09:25:06;20.60;43.80
3198;DHT22;1611;49.394;11.136;2023-08-30T09:27:34;20.90;41.90
3198;DHT22;1611;49.394;11.136;2023-08-30T09:30:02;21.10;40.20
3198;DHT22;1611;49.394;11.136;2023-08-30T09:32:29;21.30;40.60
3198;DHT22;1611;49.394;11.136;2023-08-30T09:34:56;21.30;39.90
3198;DHT22;1611;49.394;11.136;2023-08-30T09:37:23;21.50;39.10
3198;DHT22;1611;49.394;11.136;2023-08-30T09:39:52;21.60;38.20
3198;DHT22;1611;49.394;11.136;2023-08-30T09:42:18;21.40;36.50
3198;DHT22;1611;49.394;11.136;2023-08-30T09:44:47;21.30;38.40
3198;DHT22;1611;49.394;11.136;2023-08-30T09:47:14;21.20;38.60
3198;DHT22;1611;49.394;11.136;2023-08-30T09:49:44;21.20;39.90
3198;DHT22;1611;49.394;11.136;2023-08-30T09:52:14;21.10;40.10
3198;DHT22;1611;49.394;11.136;2023-08-30T09:54:42;21.10;40.40
3198;DHT22;1611;49.394;11.136;2023-08-30T09:57:10;21.40;40.30
3198;DHT22;1611;49.394;11.136;2023-08-30T09:59:37;21.60;40.20
3198;DHT22;1611;49.394;11.136;2023-08-30T10:02:08;21.80;38.90
3198;DHT22;1611;49.394;11.136;2023-08-30T10:04:36;21.70;40.40
3198;DHT22;1611;49.394;11.136;2023-08-30T10:07:04;21.70;38.50
3198;DHT22;1611;49.394;11.136;2023-08-30T10:09:32;21.80;38.60
3198;DHT22;1611;49.394;11.136;2023-08-30T10:12:00;22.00;36.50
3198;DHT22;1611;49.394;11.136;2023-08-30T10:14:28;22.00;36.90
3198;DHT22;1611;49.394;11.136;2023-08-30T10:17:01;22.10;37.40
3198;DHT22;1611;49.394;11.136;2023-08-30T10:19:30;22.10;37.30
3198;DHT22;1611;49.394;11.136;2023-08-30T10:22:03;22.20;35.70
3198;DHT22;1611;49.394;11.136;2023-08-30T10:24:33;22.20;35.70
3198;DHT22;1611;49.394;11.136;2023-08-30T10:27:04;22.30;34.70
3198;DHT22;1611;49.394;11.136;2023-08-30T10:29:34;22.10;34.30
3198;DHT22;1611;49.394;11.136;2023-08-30T10:32:02;22.10;35.60
3198;DHT22;1611;49.394;11.136;2023-08-30T10:34:33;22.00;35.60
3198;DHT22;1611;49.394;11.136;2023-08-30T10:37:02;21.90;35.40
3198;DHT22;1611;49.394;11.136;2023-08-30T10:39:36;22.20;37.70
3198;DHT22;1611;49.394;11.136;2023-08-30T10:42:14;22.30;34.60
3198;DHT22;1611;49.394;11.136;2023-08-30T10:44:48;22.30;35.40
3198;DHT22;1611;49.394;11.136;2023-08-30T10:47:18;22.40;34.20
3198;DHT22;1611;49.394;11.136;2023-08-30T10:49:48;22.30;33.10
3198;DHT22;1611;49.394;11.136;2023-08-30T10:52:15;22.30;36.10
3198;DHT22;1611;49.394;11.136;2023-08-30T10:54:42;22.20;36.40
3198;DHT22;1611;49.394;11.136;2023-08-30T10:57:13;22.80;34.50
3198;DHT22;1611;49.394;11.136;2023-08-30T10:59:40;24.20;29.90
3198;DHT22;1611;49.394;11.136;2023-08-30T11:02:07;25.60;27.00
3198;DHT22;1611;49.394;11.136;2023-08-30T11:04:39;26.20;22.70
3198;DHT22;1611;49.394;11.136;2023-08-30T11:07:08;26.20;24.20
3198;DHT22;1611;49.394;11.136;2023-08-30T11:09:37;26.80;22.10
3198;DHT22;1611;49.394;11.136;2023-08-30T11:12:06;27.20;19.60
3198;DHT22;1611;49.394;11.136;2023-08-30T11:14:33;26.80;20.90
3198;DHT22;1611;49.394;11.136;2023-08-30T11:16:59;26.50;23.30
3198;DHT22;1611;49.394;11.136;2023-08-30T11:19:29;27.00;23.30
3198;DHT22;1611;49.394;11.136;2023-08-30T11:21:56;28.50;19.50
3198;DHT22;1611;49.394;11.136;2023-08-30T11:24:25;28.90;19.10
3198;DHT22;1611;49.394;11.136;2023-08-30T11:26:54;29.10;18.10
3198;DHT22;1611;49.394;11.136;2023-08-30T11:29:21;29.00;18.10
3198;DHT22;1611;49.394;11.136;2023-08-30T11:31:49;30.30;16.30
3198;DHT22;1611;49.394;11.136;2023-08-30T11:34:20;31.40;14.50
3198;DHT22;1611;49.394;11.136;2023-08-30T11:36:48;32.30;13.50
3198;DHT22;1611;49.394;11.136;2023-08-30T11:39:16;33.10;12.00
3198;DHT22;1611;49.394;11.136;2023-08-30T11:41:44;33.60;11.30
3198;DHT22;1611;49.394;11.136;2023-08-30T11:44:11;33.70;10.50
3198;DHT22;1611;49.394;11.136;2023-08-30T11:46:38;33.50;9.30
3198;DHT22;1611;49.394;11.136;2023-08-30T11:49:05;33.30;11.00
3198;DHT22;1611;49.394;11.136;2023-08-30T11:51:32;32.60;11.40
3198;DHT22;1611;49.394;11.136;2023-08-30T11:53:59;31.60;12.30
3198;DHT22;1611;49.394;11.136;2023-08-30T11:56:27;31.20;13.20
3198;DHT22;1611;49.394;11.136;2023-08-30T11:58:56;30.80;14.70
3198;DHT22;1611;49.394;11.136;2023-08-30T12:01:23;29.90;14.30
3198;DHT22;1611;49.394;11.136;2023-08-30T12:03:50;28.90;16.10
3198;DHT22;1611;49.394;11.136;2023-08-30T12:06:17;27.80;17.90
3198;DHT22;1611;49.394;11.136;2023-08-30T12:08:44;26.90;18.80
3198;DHT22;1611;49.394;11.136;2023-08-30T12:11:18;26.10;21.20
3198;DHT22;1611;49.394;11.136;2023-08-30T12:13:45;25.20;22.80
3198;DHT22;1611;49.394;11.136;2023-08-30T12:16:17;24.50;26.00
3198;DHT22;1611;49.394;11.136;2023-08-30T12:18:44;23.90;28.10
3198;DHT22;1611;49.394;11.136;2023-08-30T12:21:13;23.30;28.20
3198;DHT22;1611;49.394;11.136;2023-08-30T12:23:40;22.90;30.10
3198;DHT22;1611;49.394;11.136;2023-08-30T12:26:08;22.50;32.10
3198;DHT22;1611;49.394;11.136;2023-08-30T12:28:36;22.30;35.30
3198;DHT22;1611;49.394;11.136;2023-08-30T12:31:04;22.20;37.10
3198;DHT22;1611;49.394;11.136;2023-08-30T12:33:33;22.00;38.10
3198;DHT22;1611;49.394;11.136;2023-08-30T12:36:00;21.90;38.70
3198;DHT22;1611;49.394;11.136;2023-08-30T12:38:27;22.00;39.70
3198;DHT22;1611;49.394;11.136;2023-08-30T12:40:55;22.00;40.50
3198;DHT22;1611;49.394;11.136;2023-08-30T12:43:23;21.90;41.40
3198;DHT22;1611;49.394;11.136;2023-08-30T12:45:50;21.90;40.00
3198;DHT22;1611;49.394;11.136;2023-08-30T12:48:18;21.90;39.30
3198;DHT22;1611;49.394;11.136;2023-08-30T12:50:47;22.00;37.60
3198;DHT22;1611;49.394;11.136;2023-08-30T12:53:15;22.20;38.60
3198;DHT22;1611;49.394;11.136;2023-08-30T12:55:42;22.30;36.30
3198;DHT22;1611;49.394;11.136;2023-08-30T12:58:09;22.40;37.20
3198;DHT22;1611;49.394;11.136;2023-08-30T13:00:37;22.30;34.10
3198;DHT22;1611;49.394;11.136;2023-08-30T13:03:04;22.20;35.30
3198;DHT22;1611;49.394;11.136;2023-08-30T13:05:31;22.20;36.70
3198;DHT22;1611;49.394;11.136;2023-08-30T13:08:00;22.20;34.10
3198;DHT22;1611;49.394;11.136;2023-08-30T13:10:27;22.10;35.00
3198;DHT22;1611;49.394;11.136;2023-08-30T13:12:53;21.90;36.20
3198;DHT22;1611;49.394;11.136;2023-08-30T13:15:20;21.90;36.30
3198;DHT22;1611;49.394;11.136;2023-08-30T13:17:47;21.70;35.30
3198;DHT22;1611;49.394;11.136;2023-08-30T13:20:14;21.70;37.40
3198;DHT22;1611;49.394;11.136;2023-08-30T13:22:41;21.70;37.30
3198;DHT22;1611;49.394;11.136;2023-08-30T13:25:09;21.90;38.10
3198;DHT22;1611;49.394;11.136;2023-08-30T13:27:36;22.00;37.90
3198;DHT22;1611;49.394;11.136;2023-08-30T13:30:04;22.00;37.20
3198;DHT22;1611;49.394;11.136;2023-08-30T13:32:30;22.10;36.70
3198;DHT22;1611;49.394;11.136;2023-08-30T13:34:57;22.10;36.30
3198;DHT22;1611;49.394;11.136;2023-08-30T13:37:24;22.10;37.00
3198;DHT22;1611;49.394;11.136;2023-08-30T13:39:52;22.00;36.70
3198;DHT22;1611;49.394;11.136;2023-08-30T13:42:20;21.80;35.20
3198;DHT22;1611;49.394;11.136;2023-08-30T13:44:50;21.80;36.10
3198;DHT22;1611;49.394;11.136;2023-08-30T13:47:17;21.90;37.50
3198;DHT22;1611;49.394;11.136;2023-08-30T13:49:44;22.00;36.40
3198;DHT22;1611;49.394;11.136;2023-08-30T13:52:11;22.10;34.00
3198;DHT22;1611;49.394;11.136;2023-08-30T13:54:38;22.10;35.60
3198;DHT22;1611;49.394;11.136;2023-08-30T13:57:05;22.30;36.00
3198;DHT22;1611;49.394;11.136;2023-08-30T13:59:33;22.60;36.90
3198;DHT22;1611;49.394;11.136;2023-08-30T14:02:01;22.70;35.20
3198;DHT22;1611;49.394;11.136;2023-08-30T14:04:29;22.80;33.20
3198;DHT22;1611;49.394;11.136;2023-08-30T14:06:57;22.80;35.10
3198;DHT22;1611;49.394;11.136;2023-08-30T14:09:24;22.80;38.00
3198;DHT22;1611;49.394;11.136;2023-08-30T14:11:51;22.60;36.40
3198;DHT22;1611;49.394;11.136;2023-08-30T14:14:18;22.60;35.50
3198;DHT22;1611;49.394;11.136;2023-08-30T14:16:46;22.50;37.40
3198;DHT22;1611;49.394;11.136;2023-08-30T14:19:14;22.50;35.10
3198;DHT22;1611;49.394;11.136;2023-08-30T14:21:41;22.50;35.80
3198;DHT22;1611;49.394;11.136;2023-08-30T14:24:08;22.50;37.00
3198;DHT22;1611;49.394;11.136;2023-08-30T14:26:35;22.60;35.80
3198;DHT22;1611;49.394;11.136;2023-08-30T14:29:02;22.50;35.90
3198;DHT22;1611;49.394;11.136;2023-08-30T14:31:28;22.50;37.10
3198;DHT22;1611;49.394;11.136;2023-08-30T14:33:57;22.60;37.90
3198;DHT22;1611;49.394;11.136;2023-08-30T14:36:24;22.80;38.20
3198;DHT22;1611;49.394;11.136;2023-08-30T14:38:50;22.80;35.70
3198;DHT22;1611;49.394;11.136;2023-08-30T14:41:17;22.90;34.70
3198;DHT22;1611;49.394;11.136;2023-08-30T14:43:44;22.90;36.00
3198;DHT22;1611;49.394;11.136;2023-08-30T14:46:11;22.90;36.10
3198;DHT22;1611;49.394;11.136;2023-08-30T14:48:39;22.90;34.00
3198;DHT22;1611;49.394;11.136;2023-08-30T14:51:07;22.70;35.90
3198;DHT22;1611;49.394;11.136;2023-08-30T14:53:34;22.80;33.90
3198;DHT22;1611;49.394;11.136;2023-08-30T14:56:01;22.90;34.20
3198;DHT22;1611;49.394;11.136;2023-08-30T14:58:32;23.00;32.90
3198;DHT22;1611;49.394;11.136;2023-08-30T15:00:59;23.00;33.30
3198;DHT22;1611;49.394;11.136;2023-08-30T15:03:25;23.00;33.60
3198;DHT22;1611;49.394;11.136;2023-08-30T15:05:53;23.10;35.30
3198;DHT22;1611;49.394;11.136;2023-08-30T15:08:22;23.10;36.10
3198;DHT22;1611;49.394;11.136;2023-08-30T15:10:48;23.20;34.70
3198;DHT22;1611;49.394;11.136;2023-08-30T15:13:16;23.20;33.20
3198;DHT22;1611;49.394;11.136;2023-08-30T15:15:43;23.40;33.90
3198;DHT22;1611;49.394;11.136;2023-08-30T15:18:10;23.50;34.20
3198;DHT22;1611;49.394;11.136;2023-08-30T15:20:37;23.50;33.20
3198;DHT22;1611;49.394;11.136;2023-08-30T15:23:04;23.60;34.20
3198;DHT22;1611;49.394;11.136;2023-08-30T15:25:32;23.40;36.50
3198;DHT22;1611;49.394;11.136;2023-08-30T15:28:00;23.10;36.20
3198;DHT22;1611;49.394;11.136;2023-08-30T15:30:26;23.10;37.50
3198;DHT22;1611;49.394;11.136;2023-08-30T15:32:53;22.90;36.90
3198;DHT22;1611;49.394;11.136;2023-08-30T15:35:20;22.70;35.20
3198;DHT22;1611;49.394;11.136;2023-08-30T15:37:47;22.50;37.60
3198;DHT22;1611;49.394;11.136;2023-08-30T15:40:15;22.20;38.90
3198;DHT22;1611;49.394;11.136;2023-08-30T15:42:43;22.00;40.00
3198;DHT22;1611;49.394;11.136;2023-08-30T15:45:10;21.90;41.20
3198;DHT22;1611;49.394;11.136;2023-08-30T15:47:36;21.90;41.10